sensor_id;sensor_type;location;lat;lon;timestamp;P1;durP1;ratioP1;P2;durP2;ratioP2
75071;SDS011;63651;55.728;38.022;2023-01-19T00:03:03;11.63;;;6.03;;
75071;SDS011;63651;55.728;38.022;2023-01-19T00:08:04;11.93;;;5.70;;
75071;SDS011;63651;55.728;38.022;2023-01-19T00:13:14;10.52;;;6.22;;
75071;SDS011;63651;55.728;38.022;2023-01-19T00:18:15;11.88;;;5.32;;
75071;SDS011;63651;55.728;38.022;2023-01-19T00:23:16;10.27;;;6.25;;
75071;SDS011;63651;55.728;38.022;2023-01-19T00:28:18;10.77;;;6.32;;
75071;SDS011;63651;55.728;38.022;2023-01-19T00:33:19;9.88;;;5.57;;
75071;SDS011;63651;55.728;38.022;2023-01-19T00:38:20;12.40;;;6.63;;
75071;SDS011;63651;55.728;38.022;2023-01-19T00:43:21;11.05;;;5.57;;
75071;SDS011;63651;55.728;38.022;2023-01-19T00:48:22;11.98;;;6.38;;
75071;SDS011;63651;55.728;38.022;2023-01-19T00:53:24;8.25;;;5.45;;
75071;SDS011;63651;55.728;38.022;2023-01-19T00:58:25;10.18;;;6.03;;
75071;SDS011;63651;55.728;38.022;2023-01-19T01:03:26;10.27;;;5.38;;
75071;SDS011;63651;55.728;38.022;2023-01-19T01:08:28;8.70;;;4.82;;
75071;SDS011;63651;55.728;38.022;2023-01-19T01:13:30;10.80;;;5.78;;
75071;SDS011;63651;55.728;38.022;2023-01-19T01:18:31;9.93;;;4.88;;
75071;SDS011;63651;55.728;38.022;2023-01-19T01:23:32;9.93;;;5.30;;
75071;SDS011;63651;55.728;38.022;2023-01-19T01:28:34;9.68;;;5.15;;
75071;SDS011;63651;55.728;38.022;2023-01-19T01:33:35;9.43;;;5.43;;
75071;SDS011;63651;55.728;38.022;2023-01-19T01:38:36;11.48;;;5.18;;
75071;SDS011;63651;55.728;38.022;2023-01-19T01:43:50;8.60;;;4.97;;
75071;SDS011;63651;55.728;38.022;2023-01-19T01:54:10;8.38;;;5.88;;
75071;SDS011;63651;55.728;38.022;2023-01-19T01:59:26;10.55;;;5.53;;
75071;SDS011;63651;55.728;38.022;2023-01-19T02:04:34;9.23;;;5.47;;
75071;SDS011;63651;55.728;38.022;2023-01-19T02:09:35;8.45;;;4.93;;
75071;SDS011;63651;55.728;38.022;2023-01-19T02:14:56;11.88;;;6.30;;
75071;SDS011;63651;55.728;38.022;2023-01-19T02:19:57;8.30;;;4.95;;
75071;SDS011;63651;55.728;38.022;2023-01-19T02:24:59;8.60;;;4.75;;
75071;SDS011;63651;55.728;38.022;2023-01-19T02:30:00;11.38;;;6.20;;
75071;SDS011;63651;55.728;38.022;2023-01-19T02:35:03;12.10;;;5.65;;
75071;SDS011;63651;55.728;38.022;2023-01-19T02:40:09;8.65;;;5.50;;
75071;SDS011;63651;55.728;38.022;2023-01-19T02:45:12;11.60;;;6.05;;
75071;SDS011;63651;55.728;38.022;2023-01-19T02:55:47;9.00;;;5.20;;
75071;SDS011;63651;55.728;38.022;2023-01-19T03:01:18;8.95;;;4.88;;
75071;SDS011;63651;55.728;38.022;2023-01-19T03:06:46;10.18;;;4.60;;
75071;SDS011;63651;55.728;38.022;2023-01-19T03:12:03;11.45;;;5.13;;
75071;SDS011;63651;55.728;38.022;2023-01-19T03:17:13;7.20;;;4.07;;
75071;SDS011;63651;55.728;38.022;2023-01-19T03:22:21;7.88;;;4.88;;
75071;SDS011;63651;55.728;38.022;2023-01-19T03:27:29;8.18;;;4.25;;
75071;SDS011;63651;55.728;38.022;2023-01-19T03:32:35;6.95;;;4.88;;
75071;SDS011;63651;55.728;38.022;2023-01-19T03:37:42;9.30;;;4.35;;
75071;SDS011;63651;55.728;38.022;2023-01-19T03:42:45;7.32;;;3.90;;
75071;SDS011;63651;55.728;38.022;2023-01-19T03:47:48;6.47;;;3.78;;
75071;SDS011;63651;55.728;38.022;2023-01-19T03:58:21;7.30;;;4.38;;
75071;SDS011;63651;55.728;38.022;2023-01-19T04:03:22;6.68;;;3.53;;
75071;SDS011;63651;55.728;38.022;2023-01-19T04:08:23;7.18;;;3.85;;
75071;SDS011;63651;55.728;38.022;2023-01-19T04:13:24;6.65;;;4.03;;
75071;SDS011;63651;55.728;38.022;2023-01-19T04:18:28;8.20;;;4.18;;
75071;SDS011;63651;55.728;38.022;2023-01-19T04:23:30;6.88;;;3.55;;
75071;SDS011;63651;55.728;38.022;2023-01-19T04:28:31;7.43;;;3.78;;
75071;SDS011;63651;55.728;38.022;2023-01-19T04:33:34;6.55;;;3.63;;
75071;SDS011;63651;55.728;38.022;2023-01-19T04:38:35;5.80;;;3.42;;
75071;SDS011;63651;55.728;38.022;2023-01-19T04:43:36;6.18;;;3.50;;
75071;SDS011;63651;55.728;38.022;2023-01-19T04:48:37;6.32;;;4.30;;
75071;SDS011;63651;55.728;38.022;2023-01-19T04:53:39;8.98;;;3.97;;
75071;SDS011;63651;55.728;38.022;2023-01-19T04:58:40;7.05;;;3.75;;
75071;SDS011;63651;55.728;38.022;2023-01-19T05:03:41;6.40;;;4.00;;
75071;SDS011;63651;55.728;38.022;2023-01-19T05:08:42;8.75;;;3.75;;
75071;SDS011;63651;55.728;38.022;2023-01-19T05:13:43;7.82;;;3.85;;
75071;SDS011;63651;55.728;38.022;2023-01-19T05:18:44;8.88;;;3.92;;
75071;SDS011;63651;55.728;38.022;2023-01-19T05:23:45;5.57;;;3.35;;
75071;SDS011;63651;55.728;38.022;2023-01-19T05:28:46;6.85;;;3.50;;
75071;SDS011;63651;55.728;38.022;2023-01-19T05:33:47;7.07;;;3.88;;
75071;SDS011;63651;55.728;38.022;2023-01-19T05:38:48;6.68;;;4.45;;
75071;SDS011;63651;55.728;38.022;2023-01-19T05:43:49;6.50;;;4.38;;
75071;SDS011;63651;55.728;38.022;2023-01-19T05:48:50;5.13;;;3.80;;
75071;SDS011;63651;55.728;38.022;2023-01-19T05:53:51;7.95;;;4.20;;
75071;SDS011;63651;55.728;38.022;2023-01-19T05:58:53;7.13;;;4.40;;
75071;SDS011;63651;55.728;38.022;2023-01-19T06:03:54;5.85;;;3.47;;
75071;SDS011;63651;55.728;38.022;2023-01-19T06:08:56;8.10;;;4.22;;
75071;SDS011;63651;55.728;38.022;2023-01-19T06:13:57;5.85;;;4.35;;
75071;SDS011;63651;55.728;38.022;2023-01-19T06:19:00;6.10;;;3.97;;
75071;SDS011;63651;55.728;38.022;2023-01-19T06:24:01;6.75;;;3.58;;
75071;SDS011;63651;55.728;38.022;2023-01-19T06:29:03;7.03;;;3.50;;
75071;SDS011;63651;55.728;38.022;2023-01-19T06:34:06;7.55;;;4.20;;
75071;SDS011;63651;55.728;38.022;2023-01-19T06:39:07;6.88;;;4.30;;
75071;SDS011;63651;55.728;38.022;2023-01-19T06:44:09;7.80;;;5.07;;
75071;SDS011;63651;55.728;38.022;2023-01-19T06:49:10;17.50;;;6.93;;
75071;SDS011;63651;55.728;38.022;2023-01-19T06:54:11;12.70;;;6.75;;
75071;SDS011;63651;55.728;38.022;2023-01-19T06:59:12;10.55;;;6.20;;
75071;SDS011;63651;55.728;38.022;2023-01-19T07:04:13;11.00;;;6.68;;
75071;SDS011;63651;55.728;38.022;2023-01-19T07:09:15;9.75;;;6.20;;
75071;SDS011;63651;55.728;38.022;2023-01-19T07:14:16;13.90;;;6.82;;
75071;SDS011;63651;55.728;38.022;2023-01-19T07:19:17;13.48;;;6.18;;
75071;SDS011;63651;55.728;38.022;2023-01-19T07:24:18;11.45;;;5.80;;
75071;SDS011;63651;55.728;38.022;2023-01-19T07:29:19;13.40;;;6.45;;
75071;SDS011;63651;55.728;38.022;2023-01-19T07:34:20;10.98;;;5.65;;
75071;SDS011;63651;55.728;38.022;2023-01-19T09:13:25;8.98;;;5.60;;
75071;SDS011;63651;55.728;38.022;2023-01-19T09:18:26;7.93;;;4.93;;
75071;SDS011;63651;55.728;38.022;2023-01-19T09:23:27;7.63;;;4.85;;
75071;SDS011;63651;55.728;38.022;2023-01-19T09:28:29;10.43;;;5.75;;
75071;SDS011;63651;55.728;38.022;2023-01-19T09:33:30;10.82;;;5.85;;
75071;SDS011;63651;55.728;38.022;2023-01-19T09:38:31;7.60;;;5.28;;
75071;SDS011;63651;55.728;38.022;2023-01-19T09:43:47;9.32;;;5.40;;
75071;SDS011;63651;55.728;38.022;2023-01-19T09:49:04;8.30;;;5.13;;
75071;SDS011;63651;55.728;38.022;2023-01-19T10:09:34;8.10;;;5.07;;
75071;SDS011;63651;55.728;38.022;2023-01-19T10:14:54;8.13;;;4.90;;
75071;SDS011;63651;55.728;38.022;2023-01-19T10:20:03;9.57;;;5.35;;
75071;SDS011;63651;55.728;38.022;2023-01-19T10:25:16;8.18;;;5.55;;
75071;SDS011;63651;55.728;38.022;2023-01-19T10:35:23;9.02;;;5.78;;
75071;SDS011;63651;55.728;38.022;2023-01-19T10:40:29;8.98;;;5.50;;
75071;SDS011;63651;55.728;38.022;2023-01-19T10:45:32;10.27;;;5.45;;
75071;SDS011;63651;55.728;38.022;2023-01-19T10:50:35;12.18;;;6.25;;
75071;SDS011;63651;55.728;38.022;2023-01-19T10:55:40;9.85;;;6.00;;
75071;SDS011;63651;55.728;38.022;2023-01-19T11:00:42;10.10;;;6.30;;
75071;SDS011;63651;55.728;38.022;2023-01-19T11:05:43;11.20;;;6.53;;
75071;SDS011;63651;55.728;38.022;2023-01-19T11:10:50;10.00;;;6.05;;
75071;SDS011;63651;55.728;38.022;2023-01-19T11:15:54;11.38;;;6.43;;
75071;SDS011;63651;55.728;38.022;2023-01-19T11:21:00;11.32;;;5.88;;
75071;SDS011;63651;55.728;38.022;2023-01-19T11:26:05;10.38;;;5.32;;
75071;SDS011;63651;55.728;38.022;2023-01-19T11:36:16;12.93;;;6.22;;
75071;SDS011;63651;55.728;38.022;2023-01-19T11:46:31;13.85;;;6.30;;
75071;SDS011;63651;55.728;38.022;2023-01-19T11:51:38;11.05;;;6.03;;
75071;SDS011;63651;55.728;38.022;2023-01-19T11:57:09;13.05;;;6.28;;
75071;SDS011;63651;55.728;38.022;2023-01-19T12:02:23;9.70;;;5.85;;
75071;SDS011;63651;55.728;38.022;2023-01-19T12:07:29;14.18;;;7.35;;
75071;SDS011;63651;55.728;38.022;2023-01-19T12:12:33;10.90;;;6.60;;
75071;SDS011;63651;55.728;38.022;2023-01-19T12:17:42;10.63;;;6.50;;
75071;SDS011;63651;55.728;38.022;2023-01-19T12:22:58;13.90;;;7.63;;
75071;SDS011;63651;55.728;38.022;2023-01-19T12:28:08;12.55;;;7.55;;
75071;SDS011;63651;55.728;38.022;2023-01-19T12:43:42;13.95;;;7.25;;
75071;SDS011;63651;55.728;38.022;2023-01-19T12:48:43;12.88;;;7.25;;
75071;SDS011;63651;55.728;38.022;2023-01-19T12:53:49;11.30;;;7.63;;
75071;SDS011;63651;55.728;38.022;2023-01-19T12:58:52;12.43;;;7.90;;
75071;SDS011;63651;55.728;38.022;2023-01-19T13:14:38;13.73;;;6.85;;
75071;SDS011;63651;55.728;38.022;2023-01-19T13:19:41;13.63;;;6.55;;
75071;SDS011;63651;55.728;38.022;2023-01-19T13:30:09;13.30;;;6.65;;
75071;SDS011;63651;55.728;38.022;2023-01-19T13:35:12;14.15;;;8.18;;
75071;SDS011;63651;55.728;38.022;2023-01-19T13:45:28;12.23;;;7.50;;
75071;SDS011;63651;55.728;38.022;2023-01-19T13:50:35;13.23;;;7.60;;
75071;SDS011;63651;55.728;38.022;2023-01-19T13:55:41;14.15;;;8.23;;
75071;SDS011;63651;55.728;38.022;2023-01-19T14:00:44;13.75;;;7.00;;
75071;SDS011;63651;55.728;38.022;2023-01-19T14:05:47;14.00;;;7.78;;
75071;SDS011;63651;55.728;38.022;2023-01-19T14:15:56;12.90;;;7.28;;
75071;SDS011;63651;55.728;38.022;2023-01-19T14:21:16;15.65;;;8.15;;
75071;SDS011;63651;55.728;38.022;2023-01-19T14:31:47;12.15;;;7.38;;
75071;SDS011;63651;55.728;38.022;2023-01-19T14:36:52;12.23;;;7.68;;
75071;SDS011;63651;55.728;38.022;2023-01-19T14:41:53;13.63;;;7.53;;
75071;SDS011;63651;55.728;38.022;2023-01-19T14:46:58;12.43;;;7.25;;
75071;SDS011;63651;55.728;38.022;2023-01-19T14:52:01;10.13;;;7.10;;
75071;SDS011;63651;55.728;38.022;2023-01-19T14:57:07;11.98;;;6.82;;
75071;SDS011;63651;55.728;38.022;2023-01-19T15:02:12;9.27;;;6.15;;
75071;SDS011;63651;55.728;38.022;2023-01-19T15:07:15;10.55;;;6.97;;
75071;SDS011;63651;55.728;38.022;2023-01-19T15:12:18;8.52;;;5.47;;
75071;SDS011;63651;55.728;38.022;2023-01-19T15:17:23;10.60;;;6.05;;
75071;SDS011;63651;55.728;38.022;2023-01-19T15:22:27;9.43;;;6.25;;
75071;SDS011;63651;55.728;38.022;2023-01-19T15:27:29;8.85;;;6.18;;
75071;SDS011;63651;55.728;38.022;2023-01-19T15:32:30;9.25;;;6.07;;
75071;SDS011;63651;55.728;38.022;2023-01-19T15:37:31;8.38;;;5.75;;
75071;SDS011;63651;55.728;38.022;2023-01-19T15:42:32;11.20;;;6.18;;
75071;SDS011;63651;55.728;38.022;2023-01-19T15:47:33;10.20;;;6.72;;
75071;SDS011;63651;55.728;38.022;2023-01-19T15:52:34;9.35;;;6.10;;
75071;SDS011;63651;55.728;38.022;2023-01-19T15:57:35;9.65;;;6.13;;
75071;SDS011;63651;55.728;38.022;2023-01-19T16:02:36;10.02;;;6.15;;
75071;SDS011;63651;55.728;38.022;2023-01-19T16:07:37;9.70;;;6.30;;
75071;SDS011;63651;55.728;38.022;2023-01-19T16:12:38;8.43;;;5.93;;
75071;SDS011;63651;55.728;38.022;2023-01-19T16:17:49;10.77;;;6.78;;
75071;SDS011;63651;55.728;38.022;2023-01-19T16:22:51;10.02;;;6.28;;
75071;SDS011;63651;55.728;38.022;2023-01-19T16:27:53;9.80;;;6.22;;
75071;SDS011;63651;55.728;38.022;2023-01-19T16:32:54;9.73;;;6.90;;
75071;SDS011;63651;55.728;38.022;2023-01-19T16:37:55;12.50;;;7.07;;
75071;SDS011;63651;55.728;38.022;2023-01-19T16:42:56;12.25;;;6.85;;
75071;SDS011;63651;55.728;38.022;2023-01-19T16:47:57;11.30;;;6.82;;
75071;SDS011;63651;55.728;38.022;2023-01-19T16:52:58;11.73;;;7.18;;
75071;SDS011;63651;55.728;38.022;2023-01-19T16:57:59;12.15;;;8.40;;
75071;SDS011;63651;55.728;38.022;2023-01-19T17:03:01;11.70;;;7.55;;
75071;SDS011;63651;55.728;38.022;2023-01-19T17:08:02;12.82;;;7.20;;
75071;SDS011;63651;55.728;38.022;2023-01-19T17:13:03;13.50;;;7.25;;
75071;SDS011;63651;55.728;38.022;2023-01-19T17:18:06;14.10;;;7.22;;
75071;SDS011;63651;55.728;38.022;2023-01-19T17:23:09;11.63;;;6.82;;
75071;SDS011;63651;55.728;38.022;2023-01-19T17:28:10;11.43;;;6.85;;
75071;SDS011;63651;55.728;38.022;2023-01-19T17:33:11;14.43;;;8.38;;
75071;SDS011;63651;55.728;38.022;2023-01-19T17:38:15;14.32;;;8.73;;
75071;SDS011;63651;55.728;38.022;2023-01-19T17:43:20;13.75;;;8.07;;
75071;SDS011;63651;55.728;38.022;2023-01-19T17:48:21;14.80;;;7.95;;
75071;SDS011;63651;55.728;38.022;2023-01-19T17:53:22;17.13;;;9.00;;
75071;SDS011;63651;55.728;38.022;2023-01-19T17:58:23;16.15;;;8.55;;
75071;SDS011;63651;55.728;38.022;2023-01-19T18:03:25;15.38;;;9.27;;
75071;SDS011;63651;55.728;38.022;2023-01-19T18:08:29;17.45;;;8.55;;
75071;SDS011;63651;55.728;38.022;2023-01-19T18:13:30;15.13;;;9.07;;
75071;SDS011;63651;55.728;38.022;2023-01-19T18:18:31;14.98;;;9.27;;
75071;SDS011;63651;55.728;38.022;2023-01-19T18:23:33;14.82;;;8.48;;
75071;SDS011;63651;55.728;38.022;2023-01-19T18:28:35;14.82;;;9.05;;
75071;SDS011;63651;55.728;38.022;2023-01-19T18:33:37;14.65;;;9.23;;
75071;SDS011;63651;55.728;38.022;2023-01-19T18:38:39;16.33;;;9.85;;
75071;SDS011;63651;55.728;38.022;2023-01-19T18:43:40;16.15;;;8.95;;
75071;SDS011;63651;55.728;38.022;2023-01-19T18:48:42;17.55;;;9.55;;
75071;SDS011;63651;55.728;38.022;2023-01-19T18:53:43;18.40;;;10.07;;
75071;SDS011;63651;55.728;38.022;2023-01-19T18:58:45;17.38;;;9.93;;
75071;SDS011;63651;55.728;38.022;2023-01-19T19:03:46;18.10;;;9.95;;
75071;SDS011;63651;55.728;38.022;2023-01-19T19:08:50;17.38;;;10.15;;
75071;SDS011;63651;55.728;38.022;2023-01-19T19:13:52;18.35;;;9.90;;
75071;SDS011;63651;55.728;38.022;2023-01-19T19:18:55;18.52;;;10.05;;
75071;SDS011;63651;55.728;38.022;2023-01-19T19:23:59;16.55;;;9.35;;
75071;SDS011;63651;55.728;38.022;2023-01-19T19:29:01;18.15;;;10.38;;
75071;SDS011;63651;55.728;38.022;2023-01-19T19:34:03;17.80;;;10.15;;
75071;SDS011;63651;55.728;38.022;2023-01-19T19:39:05;20.33;;;10.00;;
75071;SDS011;63651;55.728;38.022;2023-01-19T19:44:06;21.55;;;11.05;;
75071;SDS011;63651;55.728;38.022;2023-01-19T19:49:09;20.17;;;10.18;;
75071;SDS011;63651;55.728;38.022;2023-01-19T19:54:10;19.10;;;10.18;;
75071;SDS011;63651;55.728;38.022;2023-01-19T19:59:11;20.58;;;10.57;;
75071;SDS011;63651;55.728;38.022;2023-01-19T20:04:12;20.77;;;10.27;;
75071;SDS011;63651;55.728;38.022;2023-01-19T20:09:15;19.92;;;10.95;;
75071;SDS011;63651;55.728;38.022;2023-01-19T20:14:16;17.02;;;10.75;;
75071;SDS011;63651;55.728;38.022;2023-01-19T20:19:22;18.48;;;10.95;;
75071;SDS011;63651;55.728;38.022;2023-01-19T20:24:44;17.83;;;10.90;;
75071;SDS011;63651;55.728;38.022;2023-01-19T20:29:48;18.33;;;10.55;;
75071;SDS011;63651;55.728;38.022;2023-01-19T20:34:49;18.67;;;11.20;;
75071;SDS011;63651;55.728;38.022;2023-01-19T20:39:51;20.35;;;11.57;;
75071;SDS011;63651;55.728;38.022;2023-01-19T20:44:54;19.63;;;10.95;;
75071;SDS011;63651;55.728;38.022;2023-01-19T20:49:55;18.25;;;10.90;;
75071;SDS011;63651;55.728;38.022;2023-01-19T20:54:56;21.92;;;11.73;;
75071;SDS011;63651;55.728;38.022;2023-01-19T20:59:57;19.63;;;11.38;;
75071;SDS011;63651;55.728;38.022;2023-01-19T21:04:58;19.02;;;10.27;;
75071;SDS011;63651;55.728;38.022;2023-01-19T21:09:59;20.55;;;11.65;;
75071;SDS011;63651;55.728;38.022;2023-01-19T21:15:00;17.52;;;11.05;;
75071;SDS011;63651;55.728;38.022;2023-01-19T21:20:01;18.77;;;10.45;;
75071;SDS011;63651;55.728;38.022;2023-01-19T21:25:03;19.40;;;10.57;;
75071;SDS011;63651;55.728;38.022;2023-01-19T21:30:05;16.42;;;9.70;;
75071;SDS011;63651;55.728;38.022;2023-01-19T21:35:06;17.95;;;10.90;;
75071;SDS011;63651;55.728;38.022;2023-01-19T21:40:08;17.90;;;10.77;;
75071;SDS011;63651;55.728;38.022;2023-01-19T21:45:09;18.90;;;10.80;;
75071;SDS011;63651;55.728;38.022;2023-01-19T21:50:10;18.25;;;10.95;;
75071;SDS011;63651;55.728;38.022;2023-01-19T21:55:11;19.00;;;10.73;;
75071;SDS011;63651;55.728;38.022;2023-01-19T22:00:13;18.80;;;10.70;;
75071;SDS011;63651;55.728;38.022;2023-01-19T22:05:14;17.42;;;10.13;;
75071;SDS011;63651;55.728;38.022;2023-01-19T22:10:15;18.58;;;10.55;;
75071;SDS011;63651;55.728;38.022;2023-01-19T22:15:17;17.83;;;10.55;;
75071;SDS011;63651;55.728;38.022;2023-01-19T22:20:18;19.38;;;10.27;;
75071;SDS011;63651;55.728;38.022;2023-01-19T22:25:19;16.27;;;10.77;;
75071;SDS011;63651;55.728;38.022;2023-01-19T22:30:24;15.98;;;10.02;;
75071;SDS011;63651;55.728;38.022;2023-01-19T22:35:25;19.75;;;10.32;;
75071;SDS011;63651;55.728;38.022;2023-01-19T22:40:26;17.90;;;10.80;;
75071;SDS011;63651;55.728;38.022;2023-01-19T22:45:27;16.02;;;10.00;;
75071;SDS011;63651;55.728;38.022;2023-01-19T22:50:28;17.13;;;10.20;;
75071;SDS011;63651;55.728;38.022;2023-01-19T22:55:29;16.85;;;9.90;;
75071;SDS011;63651;55.728;38.022;2023-01-19T23:00:30;17.63;;;10.20;;
75071;SDS011;63651;55.728;38.022;2023-01-19T23:05:34;15.63;;;9.95;;
75071;SDS011;63651;55.728;38.022;2023-01-19T23:10:39;18.35;;;10.68;;
75071;SDS011;63651;55.728;38.022;2023-01-19T23:15:40;15.73;;;10.38;;
75071;SDS011;63651;55.728;38.022;2023-01-19T23:20:41;17.45;;;10.10;;
75071;SDS011;63651;55.728;38.022;2023-01-19T23:25:42;16.08;;;9.85;;
75071;SDS011;63651;55.728;38.022;2023-01-19T23:30:44;16.58;;;9.70;;
75071;SDS011;63651;55.728;38.022;2023-01-19T23:35:45;18.65;;;10.15;;
75071;SDS011;63651;55.728;38.022;2023-01-19T23:40:46;15.82;;;9.35;;
75071;SDS011;63651;55.728;38.022;2023-01-19T23:45:50;15.50;;;9.48;;
75071;SDS011;63651;55.728;38.022;2023-01-19T23:50:51;16.40;;;9.60;;
75071;SDS011;63651;55.728;38.022;2023-01-19T23:55:52;16.40;;;9.65;;
